sensor_id;sensor_type;location;lat;lon;timestamp;pressure;altitude;pressure_sealevel;temperature;humidity
8894;BME280;4483;48.622;9.230;2022-11-25T00:00:45;97849.00;;;1.66;99.34
8894;BME280;4483;48.622;9.230;2022-11-25T00:03:12;97844.75;;;1.64;98.74
8894;BME280;4483;48.622;9.230;2022-11-25T00:05:38;97852.41;;;1.59;98.63
8894;BME280;4483;48.622;9.230;2022-11-25T00:08:05;97849.88;;;1.56;99.03
8894;BME280;4483;48.622;9.230;2022-11-25T00:10:33;97839.72;;;1.55;99.58
8894;BME280;4483;48.622;9.230;2022-11-25T00:13:00;97847.34;;;1.56;99.34
8894;BME280;4483;48.622;9.230;2022-11-25T00:15:26;97845.66;;;1.55;99.82
8894;BME280;4483;48.622;9.230;2022-11-25T00:17:53;97844.81;;;1.55;98.81
8894;BME280;4483;48.622;9.230;2022-11-25T00:20:20;97854.97;;;1.55;99.16
8894;BME280;4483;48.622;9.230;2022-11-25T00:22:46;97858.38;;;1.54;99.15
8894;BME280;4483;48.622;9.230;2022-11-25T00:25:13;97855.81;;;1.52;99.87
8894;BME280;4483;48.622;9.230;2022-11-25T00:27:41;97850.75;;;1.49;99.53
8894;BME280;4483;48.622;9.230;2022-11-25T00:30:09;97846.53;;;1.50;99.35
8894;BME280;4483;48.622;9.230;2022-11-25T00:32:36;97841.47;;;1.48;99.35
8894;BME280;4483;48.622;9.230;2022-11-25T00:35:03;97842.28;;;1.49;99.75
8894;BME280;4483;48.622;9.230;2022-11-25T00:37:31;97847.38;;;1.49;99.34
8894;BME280;4483;48.622;9.230;2022-11-25T00:39:57;97844.84;;;1.49;99.28
8894;BME280;4483;48.622;9.230;2022-11-25T00:42:24;97849.06;;;1.50;99.83
8894;BME280;4483;48.622;9.230;2022-11-25T00:45:10;97851.63;;;1.50;99.68
8894;BME280;4483;48.622;9.230;2022-11-25T00:47:36;97849.06;;;1.47;99.66
8894;BME280;4483;48.622;9.230;2022-11-25T00:50:04;97848.25;;;1.48;99.30
8894;BME280;4483;48.622;9.230;2022-11-25T00:52:31;97849.09;;;1.44;99.28
8894;BME280;4483;48.622;9.230;2022-11-25T00:55:01;97852.50;;;1.43;98.82
8894;BME280;4483;48.622;9.230;2022-11-25T00:57:28;97846.59;;;1.41;99.26
8894;BME280;4483;48.622;9.230;2022-11-25T00:59:55;97849.97;;;1.40;99.91
8894;BME280;4483;48.622;9.230;2022-11-25T01:02:23;97845.75;;;1.39;99.45
8894;BME280;4483;48.622;9.230;2022-11-25T01:04:49;97855.06;;;1.37;99.45
8894;BME280;4483;48.622;9.230;2022-11-25T01:07:16;97861.81;;;1.38;100.00
8894;BME280;4483;48.622;9.230;2022-11-25T01:09:43;97867.75;;;1.38;100.00
8894;BME280;4483;48.622;9.230;2022-11-25T01:12:10;97854.19;;;1.39;100.00
8894;BME280;4483;48.622;9.230;2022-11-25T01:14:36;97873.66;;;1.42;100.00
8894;BME280;4483;48.622;9.230;2022-11-25T01:17:03;97863.47;;;1.45;100.00
8894;BME280;4483;48.622;9.230;2022-11-25T01:19:31;97866.84;;;1.47;99.85
8894;BME280;4483;48.622;9.230;2022-11-25T01:21:58;97860.94;;;1.48;100.00
8894;BME280;4483;48.622;9.230;2022-11-25T01:24:24;97860.91;;;1.49;100.00
8894;BME280;4483;48.622;9.230;2022-11-25T01:26:53;97854.16;;;1.50;100.00
8894;BME280;4483;48.622;9.230;2022-11-25T01:29:20;97846.53;;;1.50;100.00
8894;BME280;4483;48.622;9.230;2022-11-25T01:31:46;97843.13;;;1.51;99.97
8894;BME280;4483;48.622;9.230;2022-11-25T01:34:15;97841.44;;;1.51;100.00
8894;BME280;4483;48.622;9.230;2022-11-25T01:36:43;97851.59;;;1.51;99.84
8894;BME280;4483;48.622;9.230;2022-11-25T01:39:13;97842.28;;;1.49;100.00
8894;BME280;4483;48.622;9.230;2022-11-25T01:41:41;97842.28;;;1.49;100.00
8894;BME280;4483;48.622;9.230;2022-11-25T01:44:11;97839.78;;;1.47;100.00
8894;BME280;4483;48.622;9.230;2022-11-25T01:46:47;97837.28;;;1.43;100.00
8894;BME280;4483;48.622;9.230;2022-11-25T01:49:18;97838.94;;;1.39;100.00
8894;BME280;4483;48.622;9.230;2022-11-25T01:51:51;97837.25;;;1.40;100.00
8894;BME280;4483;48.622;9.230;2022-11-25T01:54:22;97843.19;;;1.42;100.00
8894;BME280;4483;48.622;9.230;2022-11-25T01:56:55;97843.16;;;1.45;100.00
8894;BME280;4483;48.622;9.230;2022-11-25T01:59:24;97845.69;;;1.48;100.00
8894;BME280;4483;48.622;9.230;2022-11-25T02:01:51;97845.66;;;1.52;100.00
8894;BME280;4483;48.622;9.230;2022-11-25T02:04:20;97844.81;;;1.53;100.00
8894;BME280;4483;48.622;9.230;2022-11-25T02:06:54;97843.97;;;1.53;100.00
8894;BME280;4483;48.622;9.230;2022-11-25T02:09:23;97837.22;;;1.52;100.00
8894;BME280;4483;48.622;9.230;2022-11-25T02:11:50;97835.53;;;1.51;100.00
8894;BME280;4483;48.622;9.230;2022-11-25T02:14:18;97830.44;;;1.54;100.00
8894;BME280;4483;48.622;9.230;2022-11-25T02:16:47;97829.56;;;1.55;100.00
8894;BME280;4483;48.622;9.230;2022-11-25T02:19:21;97825.34;;;1.57;100.00
8894;BME280;4483;48.622;9.230;2022-11-25T02:21:53;97819.41;;;1.58;100.00
8894;BME280;4483;48.622;9.230;2022-11-25T02:24:26;97821.94;;;1.58;100.00
8894;BME280;4483;48.622;9.230;2022-11-25T02:26:56;97821.94;;;1.58;100.00
8894;BME280;4483;48.622;9.230;2022-11-25T02:29:23;97820.25;;;1.57;100.00
8894;BME280;4483;48.622;9.230;2022-11-25T02:31:50;97814.31;;;1.58;100.00
8894;BME280;4483;48.622;9.230;2022-11-25T02:34:16;97816.84;;;1.58;100.00
8894;BME280;4483;48.622;9.230;2022-11-25T02:36:43;97820.25;;;1.57;100.00
8894;BME280;4483;48.622;9.230;2022-11-25T02:39:10;97817.75;;;1.54;100.00
8894;BME280;4483;48.622;9.230;2022-11-25T02:41:39;97808.41;;;1.54;100.00
8894;BME280;4483;48.622;9.230;2022-11-25T02:44:09;97817.75;;;1.54;100.00
8894;BME280;4483;48.622;9.230;2022-11-25T02:46:35;97817.75;;;1.54;100.00
8894;BME280;4483;48.622;9.230;2022-11-25T02:49:03;97821.97;;;1.55;100.00
8894;BME280;4483;48.622;9.230;2022-11-25T02:51:30;97814.38;;;1.52;100.00
8894;BME280;4483;48.622;9.230;2022-11-25T02:53:57;97806.75;;;1.52;100.00
8894;BME280;4483;48.622;9.230;2022-11-25T02:56:26;97808.44;;;1.53;100.00
8894;BME280;4483;48.622;9.230;2022-11-25T02:58:53;97813.53;;;1.51;100.00
8894;BME280;4483;48.622;9.230;2022-11-25T03:01:21;97819.44;;;1.49;100.00
8894;BME280;4483;48.622;9.230;2022-11-25T03:03:48;97824.56;;;1.46;100.00
8894;BME280;4483;48.622;9.230;2022-11-25T03:06:15;97819.53;;;1.37;100.00
8894;BME280;4483;48.622;9.230;2022-11-25T03:08:41;97820.38;;;1.37;100.00
8894;BME280;4483;48.622;9.230;2022-11-25T03:11:08;97816.13;;;1.38;100.00
8894;BME280;4483;48.622;9.230;2022-11-25T03:13:35;97820.38;;;1.39;100.00
8894;BME280;4483;48.622;9.230;2022-11-25T03:16:01;97822.03;;;1.38;100.00
8894;BME280;4483;48.622;9.230;2022-11-25T03:18:29;97827.97;;;1.40;100.00
8894;BME280;4483;48.622;9.230;2022-11-25T03:20:56;97827.09;;;1.44;100.00
8894;BME280;4483;48.622;9.230;2022-11-25T03:23:23;97818.59;;;1.47;100.00
8894;BME280;4483;48.622;9.230;2022-11-25T03:25:50;97821.97;;;1.50;100.00
8894;BME280;4483;48.622;9.230;2022-11-25T03:28:16;97824.53;;;1.52;100.00
8894;BME280;4483;48.622;9.230;2022-11-25T03:30:43;97821.16;;;1.50;100.00
8894;BME280;4483;48.622;9.230;2022-11-25T03:33:10;97816.06;;;1.51;100.00
8894;BME280;4483;48.622;9.230;2022-11-25T03:35:38;97819.44;;;1.52;100.00
8894;BME280;4483;48.622;9.230;2022-11-25T03:38:04;97825.34;;;1.52;100.00
8894;BME280;4483;48.622;9.230;2022-11-25T03:40:31;97823.69;;;1.51;100.00
8894;BME280;4483;48.622;9.230;2022-11-25T03:42:58;97822.00;;;1.52;100.00
8894;BME280;4483;48.622;9.230;2022-11-25T03:45:24;97820.28;;;1.52;100.00
8894;BME280;4483;48.622;9.230;2022-11-25T03:47:51;97820.28;;;1.52;100.00
8894;BME280;4483;48.622;9.230;2022-11-25T03:50:18;97820.28;;;1.49;100.00
8894;BME280;4483;48.622;9.230;2022-11-25T03:52:46;97816.06;;;1.47;100.00
8894;BME280;4483;48.622;9.230;2022-11-25T03:55:12;97810.16;;;1.46;100.00
8894;BME280;4483;48.622;9.230;2022-11-25T03:57:39;97803.38;;;1.45;100.00
8894;BME280;4483;48.622;9.230;2022-11-25T04:00:07;97803.41;;;1.44;100.00
8894;BME280;4483;48.622;9.230;2022-11-25T04:02:34;97813.53;;;1.45;100.00
8894;BME280;4483;48.622;9.230;2022-11-25T04:05:00;97807.63;;;1.46;100.00
8894;BME280;4483;48.622;9.230;2022-11-25T04:07:27;97819.44;;;1.49;100.00
8894;BME280;4483;48.622;9.230;2022-11-25T04:09:55;97830.44;;;1.49;100.00
8894;BME280;4483;48.622;9.230;2022-11-25T04:12:22;97830.44;;;1.51;100.00
8894;BME280;4483;48.622;9.230;2022-11-25T04:15:06;97842.31;;;1.52;100.00
8894;BME280;4483;48.622;9.230;2022-11-25T04:17:33;97838.91;;;1.53;100.00
8894;BME280;4483;48.622;9.230;2022-11-25T04:20:00;97832.13;;;1.53;100.00
8894;BME280;4483;48.622;9.230;2022-11-25T04:22:26;97827.91;;;1.54;100.00
8894;BME280;4483;48.622;9.230;2022-11-25T04:24:54;97833.84;;;1.51;100.00
8894;BME280;4483;48.622;9.230;2022-11-25T04:27:21;97824.53;;;1.49;100.00
8894;BME280;4483;48.622;9.230;2022-11-25T04:29:47;97827.06;;;1.47;100.00
8894;BME280;4483;48.622;9.230;2022-11-25T04:32:14;97828.75;;;1.47;100.00
8894;BME280;4483;48.622;9.230;2022-11-25T04:34:41;97828.78;;;1.45;100.00
8894;BME280;4483;48.622;9.230;2022-11-25T04:37:07;97814.44;;;1.43;100.00
8894;BME280;4483;48.622;9.230;2022-11-25T04:39:34;97816.97;;;1.43;100.00
8894;BME280;4483;48.622;9.230;2022-11-25T04:42:02;97820.34;;;1.42;100.00
8894;BME280;4483;48.622;9.230;2022-11-25T04:44:46;97810.19;;;1.40;100.00
8894;BME280;4483;48.622;9.230;2022-11-25T04:47:13;97806.81;;;1.38;100.00
8894;BME280;4483;48.622;9.230;2022-11-25T04:49:40;97805.16;;;1.37;100.00
8894;BME280;4483;48.622;9.230;2022-11-25T04:52:06;97811.06;;;1.35;100.00
8894;BME280;4483;48.622;9.230;2022-11-25T04:54:33;97819.53;;;1.34;100.00
8894;BME280;4483;48.622;9.230;2022-11-25T04:57:00;97811.94;;;1.34;100.00
8894;BME280;4483;48.622;9.230;2022-11-25T04:59:28;97808.53;;;1.33;100.00
8894;BME280;4483;48.622;9.230;2022-11-25T05:02:11;97804.31;;;1.34;100.00
8894;BME280;4483;48.622;9.230;2022-11-25T05:04:38;97811.09;;;1.33;100.00
8894;BME280;4483;48.622;9.230;2022-11-25T05:07:05;97812.78;;;1.33;100.00
8894;BME280;4483;48.622;9.230;2022-11-25T05:09:32;97810.25;;;1.31;100.00
8894;BME280;4483;48.622;9.230;2022-11-25T05:11:59;97811.09;;;1.29;100.00
8894;BME280;4483;48.622;9.230;2022-11-25T05:14:25;97809.44;;;1.26;100.00
8894;BME280;4483;48.622;9.230;2022-11-25T05:16:53;97810.25;;;1.25;100.00
8894;BME280;4483;48.622;9.230;2022-11-25T05:19:20;97814.50;;;1.23;100.00
8894;BME280;4483;48.622;9.230;2022-11-25T05:21:46;97812.81;;;1.24;100.00
8894;BME280;4483;48.622;9.230;2022-11-25T05:24:13;97817.06;;;1.22;100.00
8894;BME280;4483;48.622;9.230;2022-11-25T05:26:40;97822.13;;;1.22;100.00
8894;BME280;4483;48.622;9.230;2022-11-25T05:29:07;97816.22;;;1.20;100.00
8894;BME280;4483;48.622;9.230;2022-11-25T05:31:34;97815.38;;;1.18;100.00
8894;BME280;4483;48.622;9.230;2022-11-25T05:34:02;97821.28;;;1.18;100.00
8894;BME280;4483;48.622;9.230;2022-11-25T05:36:29;97816.22;;;1.14;100.00
8894;BME280;4483;48.622;9.230;2022-11-25T05:38:56;97823.03;;;1.12;100.00
8894;BME280;4483;48.622;9.230;2022-11-25T05:41:23;97815.41;;;1.10;100.00
8894;BME280;4483;48.622;9.230;2022-11-25T05:43:50;97822.19;;;1.08;100.00
8894;BME280;4483;48.622;9.230;2022-11-25T05:46:17;97823.06;;;1.02;100.00
8894;BME280;4483;48.622;9.230;2022-11-25T05:48:44;97816.31;;;0.98;100.00
8894;BME280;4483;48.622;9.230;2022-11-25T05:51:12;97822.22;;;0.97;100.00
8894;BME280;4483;48.622;9.230;2022-11-25T05:53:38;97818.00;;;0.96;100.00
8894;BME280;4483;48.622;9.230;2022-11-25T05:56:06;97825.63;;;0.95;100.00
8894;BME280;4483;48.622;9.230;2022-11-25T05:58:33;97828.16;;;0.95;100.00
8894;BME280;4483;48.622;9.230;2022-11-25T06:00:59;97823.06;;;0.93;100.00
8894;BME280;4483;48.622;9.230;2022-11-25T06:03:27;97823.06;;;0.93;100.00
8894;BME280;4483;48.622;9.230;2022-11-25T06:05:54;97828.16;;;0.95;100.00
8894;BME280;4483;48.622;9.230;2022-11-25T06:08:22;97831.50;;;0.95;100.00
8894;BME280;4483;48.622;9.230;2022-11-25T06:10:49;97835.75;;;0.98;100.00
8894;BME280;4483;48.622;9.230;2022-11-25T06:13:16;97841.66;;;0.98;100.00
8894;BME280;4483;48.622;9.230;2022-11-25T06:15:43;97848.44;;;0.93;100.00
8894;BME280;4483;48.622;9.230;2022-11-25T06:18:11;97856.91;;;0.92;100.00
8894;BME280;4483;48.622;9.230;2022-11-25T06:20:39;97852.69;;;0.88;100.00
8894;BME280;4483;48.622;9.230;2022-11-25T06:23:06;97848.47;;;0.87;100.00
8894;BME280;4483;48.622;9.230;2022-11-25T06:25:34;97861.13;;;0.89;100.00
8894;BME280;4483;48.622;9.230;2022-11-25T06:28:02;97865.34;;;0.88;100.00
8894;BME280;4483;48.622;9.230;2022-11-25T06:30:29;97877.19;;;0.88;100.00
8894;BME280;4483;48.622;9.230;2022-11-25T06:32:56;97875.50;;;0.88;100.00
8894;BME280;4483;48.622;9.230;2022-11-25T06:35:22;97879.72;;;0.91;100.00
8894;BME280;4483;48.622;9.230;2022-11-25T06:37:49;97885.66;;;0.94;100.00
8894;BME280;4483;48.622;9.230;2022-11-25T06:40:15;97885.66;;;0.94;100.00
8894;BME280;4483;48.622;9.230;2022-11-25T06:42:43;97880.56;;;0.94;100.00
8894;BME280;4483;48.622;9.230;2022-11-25T06:45:10;97886.47;;;0.98;100.00
8894;BME280;4483;48.622;9.230;2022-11-25T06:47:37;97887.34;;;0.98;100.00
8894;BME280;4483;48.622;9.230;2022-11-25T06:50:04;97904.22;;;0.99;100.00
8894;BME280;4483;48.622;9.230;2022-11-25T06:52:31;97899.16;;;0.99;100.00
8894;BME280;4483;48.622;9.230;2022-11-25T06:54:58;97898.31;;;1.02;100.00
8894;BME280;4483;48.622;9.230;2022-11-25T06:57:25;97899.16;;;1.02;100.00
8894;BME280;4483;48.622;9.230;2022-11-25T06:59:53;97902.53;;;1.03;100.00
8894;BME280;4483;48.622;9.230;2022-11-25T07:02:20;97901.72;;;1.02;100.00
8894;BME280;4483;48.622;9.230;2022-11-25T07:04:46;97899.16;;;1.06;100.00
8894;BME280;4483;48.622;9.230;2022-11-25T07:07:13;97901.69;;;1.07;100.00
8894;BME280;4483;48.622;9.230;2022-11-25T07:09:40;97907.59;;;1.11;100.00
8894;BME280;4483;48.622;9.230;2022-11-25T07:12:06;97913.50;;;1.13;100.00
8894;BME280;4483;48.622;9.230;2022-11-25T07:14:33;97905.06;;;1.15;100.00
8894;BME280;4483;48.622;9.230;2022-11-25T07:17:01;97903.34;;;1.19;100.00
8894;BME280;4483;48.622;9.230;2022-11-25T07:19:28;97906.72;;;1.24;100.00
8894;BME280;4483;48.622;9.230;2022-11-25T07:21:57;97905.00;;;1.27;100.00
8894;BME280;4483;48.622;9.230;2022-11-25T07:24:24;97916.00;;;1.34;100.00
8894;BME280;4483;48.622;9.230;2022-11-25T07:26:50;97921.91;;;1.39;100.00
8894;BME280;4483;48.622;9.230;2022-11-25T07:29:17;97917.63;;;1.44;100.00
8894;BME280;4483;48.622;9.230;2022-11-25T07:31:44;97910.88;;;1.46;100.00
8894;BME280;4483;48.622;9.230;2022-11-25T07:34:14;97918.47;;;1.52;100.00
8894;BME280;4483;48.622;9.230;2022-11-25T07:36:42;97921.84;;;1.55;100.00
8894;BME280;4483;48.622;9.230;2022-11-25T07:39:11;97933.69;;;1.59;100.00
8894;BME280;4483;48.622;9.230;2022-11-25T07:41:38;97920.13;;;1.59;100.00
8894;BME280;4483;48.622;9.230;2022-11-25T07:44:06;97938.72;;;1.64;100.00
8894;BME280;4483;48.622;9.230;2022-11-25T07:46:34;97928.53;;;1.71;100.00
8894;BME280;4483;48.622;9.230;2022-11-25T07:49:04;97931.88;;;1.81;100.00
8894;BME280;4483;48.622;9.230;2022-11-25T07:51:33;97930.13;;;1.90;100.00
8894;BME280;4483;48.622;9.230;2022-11-25T07:54:02;97932.59;;;2.04;100.00
8894;BME280;4483;48.622;9.230;2022-11-25T07:56:32;97944.38;;;2.17;100.00
8894;BME280;4483;48.622;9.230;2022-11-25T07:58:59;97943.47;;;2.26;100.00
8894;BME280;4483;48.622;9.230;2022-11-25T08:01:26;97947.66;;;2.36;100.00
8894;BME280;4483;48.622;9.230;2022-11-25T08:03:53;97949.31;;;2.41;100.00
8894;BME280;4483;48.622;9.230;2022-11-25T08:06:22;97955.22;;;2.40;100.00
8894;BME280;4483;48.622;9.230;2022-11-25T08:08:50;97939.16;;;2.40;100.00
8894;BME280;4483;48.622;9.230;2022-11-25T08:11:21;97945.94;;;2.39;100.00
8894;BME280;4483;48.622;9.230;2022-11-25T08:13:48;97960.34;;;2.39;100.00
8894;BME280;4483;48.622;9.230;2022-11-25T08:16:17;97953.56;;;2.38;100.00
8894;BME280;4483;48.622;9.230;2022-11-25T08:18:44;97956.13;;;2.36;100.00
8894;BME280;4483;48.622;9.230;2022-11-25T08:21:13;97947.69;;;2.30;100.00
8894;BME280;4483;48.622;9.230;2022-11-25T08:23:41;97946.84;;;2.28;100.00
8894;BME280;4483;48.622;9.230;2022-11-25T08:26:11;97941.75;;;2.28;100.00
8894;BME280;4483;48.622;9.230;2022-11-25T08:28:38;97942.63;;;2.27;100.00
8894;BME280;4483;48.622;9.230;2022-11-25T08:31:08;97946.84;;;2.26;100.00
8894;BME280;4483;48.622;9.230;2022-11-25T08:33:35;97946.84;;;2.31;100.00
8894;BME280;4483;48.622;9.230;2022-11-25T08:36:02;97951.00;;;2.39;100.00
8894;BME280;4483;48.622;9.230;2022-11-25T08:38:28;97955.16;;;2.49;100.00
8894;BME280;4483;48.622;9.230;2022-11-25T08:40:55;97955.03;;;2.69;100.00
8894;BME280;4483;48.622;9.230;2022-11-25T08:43:24;97949.56;;;3.09;100.00
8894;BME280;4483;48.622;9.230;2022-11-25T08:45:51;97946.81;;;4.02;100.00
8894;BME280;4483;48.622;9.230;2022-11-25T08:48:19;97951.34;;;4.97;100.00
8894;BME280;4483;48.622;9.230;2022-11-25T08:50:47;97950.44;;;5.47;99.70
8894;BME280;4483;48.622;9.230;2022-11-25T08:53:14;97966.25;;;5.67;98.53
8894;BME280;4483;48.622;9.230;2022-11-25T08:55:41;97949.19;;;5.66;97.53
8894;BME280;4483;48.622;9.230;2022-11-25T08:58:08;97952.84;;;5.55;96.05
8894;BME280;4483;48.622;9.230;2022-11-25T09:00:38;97952.25;;;5.41;96.10
8894;BME280;4483;48.622;9.230;2022-11-25T09:03:06;97964.34;;;5.33;96.59
8894;BME280;4483;48.622;9.230;2022-11-25T09:05:33;97963.22;;;5.47;96.34
8894;BME280;4483;48.622;9.230;2022-11-25T09:08:00;97956.94;;;5.63;97.22
8894;BME280;4483;48.622;9.230;2022-11-25T09:10:27;97958.63;;;5.64;96.31
8894;BME280;4483;48.622;9.230;2022-11-25T09:12:54;97953.63;;;5.57;96.44
8894;BME280;4483;48.622;9.230;2022-11-25T09:15:21;97958.16;;;5.44;96.10
8894;BME280;4483;48.622;9.230;2022-11-25T09:17:56;97962.53;;;5.38;96.01
8894;BME280;4483;48.622;9.230;2022-11-25T09:20:23;97965.94;;;5.37;97.07
8894;BME280;4483;48.622;9.230;2022-11-25T09:22:50;97973.59;;;5.38;97.35
8894;BME280;4483;48.622;9.230;2022-11-25T09:25:17;97974.44;;;5.39;96.54
8894;BME280;4483;48.622;9.230;2022-11-25T09:27:43;97965.00;;;5.44;97.52
8894;BME280;4483;48.622;9.230;2022-11-25T09:30:11;97968.97;;;5.57;96.94
8894;BME280;4483;48.622;9.230;2022-11-25T09:32:37;97972.06;;;5.74;97.29
8894;BME280;4483;48.622;9.230;2022-11-25T09:35:06;97971.81;;;5.89;97.21
8894;BME280;4483;48.622;9.230;2022-11-25T09:37:33;97972.38;;;6.01;96.77
8894;BME280;4483;48.622;9.230;2022-11-25T09:39:59;97965.34;;;6.13;97.34
8894;BME280;4483;48.622;9.230;2022-11-25T09:42:33;97966.66;;;6.30;97.33
8894;BME280;4483;48.622;9.230;2022-11-25T09:45:26;97959.41;;;6.49;97.24
8894;BME280;4483;48.622;9.230;2022-11-25T09:48:25;97970.50;;;6.49;96.23
8894;BME280;4483;48.622;9.230;2022-11-25T09:51:03;97973.16;;;6.45;96.66
8894;BME280;4483;48.622;9.230;2022-11-25T09:53:41;97968.19;;;6.39;96.25
8894;BME280;4483;48.622;9.230;2022-11-25T09:56:15;97965.03;;;6.28;96.16
8894;BME280;4483;48.622;9.230;2022-11-25T09:58:47;97968.59;;;6.21;96.83
8894;BME280;4483;48.622;9.230;2022-11-25T10:01:18;97963.59;;;6.15;97.50
8894;BME280;4483;48.622;9.230;2022-11-25T10:03:49;97965.31;;;6.14;97.22
8894;BME280;4483;48.622;9.230;2022-11-25T10:06:22;97965.19;;;6.20;98.04
8894;BME280;4483;48.622;9.230;2022-11-25T10:08:52;97963.31;;;6.27;98.31
8894;BME280;4483;48.622;9.230;2022-11-25T10:11:27;97964.03;;;6.33;98.52
8894;BME280;4483;48.622;9.230;2022-11-25T10:13:59;97968.97;;;6.42;98.29
8894;BME280;4483;48.622;9.230;2022-11-25T10:16:34;97967.94;;;6.49;99.08
8894;BME280;4483;48.622;9.230;2022-11-25T10:19:11;97969.34;;;6.62;99.09
8894;BME280;4483;48.622;9.230;2022-11-25T10:21:42;97966.31;;;6.82;98.56
8894;BME280;4483;48.622;9.230;2022-11-25T10:24:12;97967.56;;;7.01;98.61
8894;BME280;4483;48.622;9.230;2022-11-25T10:26:41;97968.34;;;7.37;98.50
8894;BME280;4483;48.622;9.230;2022-11-25T10:29:26;97965.56;;;8.07;97.72
8894;BME280;4483;48.622;9.230;2022-11-25T10:31:58;97965.66;;;8.88;96.47
8894;BME280;4483;48.622;9.230;2022-11-25T10:34:32;97965.66;;;9.64;94.50
8894;BME280;4483;48.622;9.230;2022-11-25T10:37:04;97961.97;;;9.95;93.01
8894;BME280;4483;48.622;9.230;2022-11-25T10:39:33;97964.94;;;10.08;92.14
8894;BME280;4483;48.622;9.230;2022-11-25T10:42:03;97967.66;;;10.03;90.79
8894;BME280;4483;48.622;9.230;2022-11-25T10:44:34;97962.38;;;9.85;90.84
8894;BME280;4483;48.622;9.230;2022-11-25T10:47:14;97951.03;;;9.66;91.01
8894;BME280;4483;48.622;9.230;2022-11-25T10:49:50;97954.91;;;9.53;90.75
8894;BME280;4483;48.622;9.230;2022-11-25T10:52:28;97949.41;;;9.39;91.54
8894;BME280;4483;48.622;9.230;2022-11-25T10:54:56;97955.66;;;9.32;92.01
8894;BME280;4483;48.622;9.230;2022-11-25T10:57:26;97954.28;;;9.22;92.66
8894;BME280;4483;48.622;9.230;2022-11-25T10:59:55;97966.59;;;9.12;92.60
8894;BME280;4483;48.622;9.230;2022-11-25T11:02:25;97968.63;;;9.02;93.21
8894;BME280;4483;48.622;9.230;2022-11-25T11:04:57;97968.94;;;8.93;93.58
8894;BME280;4483;48.622;9.230;2022-11-25T11:07:27;97971.00;;;8.82;93.54
8894;BME280;4483;48.622;9.230;2022-11-25T11:10:12;97972.28;;;8.69;94.33
8894;BME280;4483;48.622;9.230;2022-11-25T11:12:50;97976.00;;;8.59;95.48
8894;BME280;4483;48.622;9.230;2022-11-25T11:15:20;97981.41;;;8.50;95.71
8894;BME280;4483;48.622;9.230;2022-11-25T11:17:48;97983.38;;;8.42;96.14
8894;BME280;4483;48.622;9.230;2022-11-25T11:20:19;97977.63;;;8.34;96.74
8894;BME280;4483;48.622;9.230;2022-11-25T11:22:54;97979.50;;;8.29;97.48
8894;BME280;4483;48.622;9.230;2022-11-25T11:25:30;97976.94;;;8.29;98.57
8894;BME280;4483;48.622;9.230;2022-11-25T11:27:58;97981.16;;;8.30;98.53
8894;BME280;4483;48.622;9.230;2022-11-25T11:30:26;97981.09;;;8.32;98.36
8894;BME280;4483;48.622;9.230;2022-11-25T11:32:56;97986.19;;;8.35;98.60
8894;BME280;4483;48.622;9.230;2022-11-25T11:35:28;97983.50;;;8.38;98.49
8894;BME280;4483;48.622;9.230;2022-11-25T11:38:03;97987.50;;;8.46;99.32
8894;BME280;4483;48.622;9.230;2022-11-25T11:40:37;97992.63;;;8.48;98.90
8894;BME280;4483;48.622;9.230;2022-11-25T11:43:20;97989.97;;;8.51;98.88
8894;BME280;4483;48.622;9.230;2022-11-25T11:45:58;97989.03;;;8.53;98.86
8894;BME280;4483;48.622;9.230;2022-11-25T11:48:35;97989.78;;;8.57;98.96
8894;BME280;4483;48.622;9.230;2022-11-25T11:51:13;97986.19;;;8.62;99.37
8894;BME280;4483;48.622;9.230;2022-11-25T11:53:49;97981.63;;;8.70;99.58
8894;BME280;4483;48.622;9.230;2022-11-25T11:56:28;97990.03;;;8.77;99.18
8894;BME280;4483;48.622;9.230;2022-11-25T11:59:12;97991.50;;;8.84;99.05
8894;BME280;4483;48.622;9.230;2022-11-25T12:01:48;97987.00;;;8.90;98.64
8894;BME280;4483;48.622;9.230;2022-11-25T12:04:25;97990.19;;;8.98;99.15
8894;BME280;4483;48.622;9.230;2022-11-25T12:06:59;97996.06;;;9.02;98.41
8894;BME280;4483;48.622;9.230;2022-11-25T12:09:32;97999.25;;;9.08;98.81
8894;BME280;4483;48.622;9.230;2022-11-25T12:12:04;97999.91;;;9.15;98.54
8894;BME280;4483;48.622;9.230;2022-11-25T12:14:40;97999.69;;;9.21;98.02
8894;BME280;4483;48.622;9.230;2022-11-25T12:17:12;97996.06;;;9.28;97.38
8894;BME280;4483;48.622;9.230;2022-11-25T12:19:43;98003.66;;;9.31;97.98
8894;BME280;4483;48.622;9.230;2022-11-25T12:22:19;98008.44;;;9.42;96.89
8894;BME280;4483;48.622;9.230;2022-11-25T12:24:51;97999.84;;;9.43;97.50
8894;BME280;4483;48.622;9.230;2022-11-25T12:27:21;98006.47;;;9.50;97.31
8894;BME280;4483;48.622;9.230;2022-11-25T12:29:51;98009.72;;;9.55;97.02
8894;BME280;4483;48.622;9.230;2022-11-25T12:32:33;98002.78;;;9.57;96.86
8894;BME280;4483;48.622;9.230;2022-11-25T12:35:15;98002.47;;;9.66;96.64
8894;BME280;4483;48.622;9.230;2022-11-25T12:37:45;98014.34;;;9.70;96.59
8894;BME280;4483;48.622;9.230;2022-11-25T12:40:19;98004.66;;;9.76;97.24
8894;BME280;4483;48.622;9.230;2022-11-25T12:42:50;98008.94;;;9.77;96.72
8894;BME280;4483;48.622;9.230;2022-11-25T12:45:21;98013.19;;;9.78;96.08
8894;BME280;4483;48.622;9.230;2022-11-25T12:47:48;98016.59;;;9.79;95.97
8894;BME280;4483;48.622;9.230;2022-11-25T12:50:17;98015.69;;;9.80;96.30
8894;BME280;4483;48.622;9.230;2022-11-25T12:52:51;98011.41;;;9.80;96.25
8894;BME280;4483;48.622;9.230;2022-11-25T12:55:21;98022.41;;;9.84;95.80
8894;BME280;4483;48.622;9.230;2022-11-25T12:58:16;98023.38;;;9.81;96.01
8894;BME280;4483;48.622;9.230;2022-11-25T13:04:18;98031.00;;;9.84;96.55
8894;BME280;4483;48.622;9.230;2022-11-25T13:07:09;98037.59;;;9.91;95.63
8894;BME280;4483;48.622;9.230;2022-11-25T13:10:12;98046.63;;;10.03;94.68
8894;BME280;4483;48.622;9.230;2022-11-25T13:12:51;98049.28;;;10.00;95.57
8894;BME280;4483;48.622;9.230;2022-11-25T13:15:26;98049.34;;;9.98;94.73
8894;BME280;4483;48.622;9.230;2022-11-25T13:17:58;98063.97;;;9.98;95.20
8894;BME280;4483;48.622;9.230;2022-11-25T13:20:42;98065.78;;;9.94;94.99
8894;BME280;4483;48.622;9.230;2022-11-25T13:23:21;98066.75;;;9.92;95.24
8894;BME280;4483;48.622;9.230;2022-11-25T13:25:50;98069.53;;;9.86;94.49
8894;BME280;4483;48.622;9.230;2022-11-25T13:28:29;98074.00;;;9.81;94.49
8894;BME280;4483;48.622;9.230;2022-11-25T13:31:19;98079.22;;;9.78;94.74
8894;BME280;4483;48.622;9.230;2022-11-25T13:33:57;98083.63;;;9.76;96.02
8894;BME280;4483;48.622;9.230;2022-11-25T13:36:26;98090.50;;;9.75;95.45
8894;BME280;4483;48.622;9.230;2022-11-25T13:39:12;98095.78;;;9.71;94.93
8894;BME280;4483;48.622;9.230;2022-11-25T13:41:45;98092.50;;;9.66;95.74
8894;BME280;4483;48.622;9.230;2022-11-25T13:44:25;98091.66;;;9.65;96.00